^^
Datos históricos de la estación: Murcia-Puente Tocinos
Diario Informe para Abril 13, 2019 Unidades:  Métrico    Inglés   Ambas
Diario Semanal Mensual Anual Configurable
  Máximo: Mínimo: Media:
Temperatura: 26.2 °C 11.1 °C 17.8 °C
Punto de rocio: 10.5 °C -2.9 °C 4.4 °C
Humedad: 76% 15% 47%
Velocidad viento: 20.1km/h 0.0km/h 8.1km/h
Racha viento: 37.0km/h - -
Viento- - SW
Presión: 1017.1 hPa 1013.5 hPa -
Precipitación: 0.0 mm    
Historical Graphs
 
 
Tabla de datos para Abril 13, 2019
Hora Temperatura Punto de rocio Presión Viento Velocidad viento Racha viento Humedad Intensidad lluvia(por hora) Nubes
00:00 14.2 °C 10.0 °C 1015.9 hPa NW 3.2 km/h 8.0 km/h 76% 0.0 mm CLR
00:05 14.2 °C 10.0 °C 1015.9 hPa WNW 3.9 km/h 7.4 km/h 76% 0.0 mm CLR
00:10 14.2 °C 10.0 °C 1015.9 hPa WNW 4.7 km/h 5.6 km/h 76% 0.0 mm CLR
00:15 14.2 °C 10.0 °C 1015.9 hPa NW 4.7 km/h 7.4 km/h 76% 0.0 mm CLR
00:20 14.2 °C 10.0 °C 1016.1 hPa NW 3.2 km/h 7.4 km/h 76% 0.0 mm CLR
00:25 14.1 °C 9.7 °C 1016.1 hPa NW 3.2 km/h 5.6 km/h 75% 0.0 mm CLR
00:30 14.1 °C 9.7 °C 1016.1 hPa NW 3.9 km/h   75% 0.0 mm CLR
00:35 14.1 °C 9.6 °C 1016.2 hPa WNW 3.9 km/h   74% 0.0 mm CLR
00:40 14.1 °C 9.6 °C 1016.2 hPa Calm   7.4 km/h 74% 0.0 mm CLR
00:45 14.1 °C 9.6 °C 1016.2 hPa Calm   5.6 km/h 74% 0.0 mm CLR
00:50 14.1 °C 9.3 °C 1016.2 hPa WNW 3.9 km/h 5.6 km/h 73% 0.0 mm CLR
00:55 14.0 °C 9.2 °C 1016.2 hPa WNW 3.9 km/h 3.7 km/h 73% 0.0 mm CLR
01:00 14.0 °C 9.1 °C 1016.2 hPa WNW 3.2 km/h   72% 0.0 mm CLR
01:05 13.9 °C 8.7 °C 1016.2 hPa WNW 2.9 km/h   71% 0.0 mm CLR
01:10 14.0 °C 9.1 °C 1016.2 hPa Calm     72% 0.0 mm CLR
01:15 14.1 °C 9.1 °C 1016.2 hPa Calm     72% 0.0 mm CLR
01:20 14.1 °C 8.9 °C 1016.2 hPa Calm   4.7 km/h 71% 0.0 mm CLR
01:25 14.2 °C 9.0 °C 1016.2 hPa Calm     71% 0.0 mm CLR
01:30 14.2 °C 9.6 °C 1016.2 hPa SSE 2.3 km/h 5.6 km/h 74% 0.0 mm CLR
01:35 14.2 °C 9.8 °C 1016.3 hPa SSE 2.3 km/h   75% 0.0 mm CLR
01:40 14.2 °C 9.8 °C 1016.3 hPa SSE 2.3 km/h   75% 0.0 mm CLR
01:45 14.1 °C 9.9 °C 1016.3 hPa SSW 2.3 km/h   76% 0.0 mm CLR
01:50 14.1 °C 9.9 °C 1016.3 hPa Calm     76% 0.0 mm CLR
01:55 14.1 °C 9.9 °C 1016.3 hPa Calm   7.4 km/h 76% 0.0 mm CLR
02:00 13.9 °C 9.1 °C 1016.3 hPa SSW 3.2 km/h 9.7 km/h 73% 0.0 mm CLR
02:05 13.8 °C 8.8 °C 1016.1 hPa SSW 3.2 km/h 7.4 km/h 72% 0.0 mm CLR
02:10 13.8 °C 8.8 °C 1016.1 hPa SSW 4.7 km/h 3.7 km/h 72% 0.0 mm CLR
02:15 13.8 °C 8.2 °C 1016.1 hPa SSW 4.7 km/h 9.3 km/h 69% 0.0 mm CLR
02:20 13.7 °C 7.2 °C 1016.1 hPa SSW 4.7 km/h 9.3 km/h 65% 0.0 mm CLR
02:25 13.7 °C 6.8 °C 1016.1 hPa SSW 4.7 km/h 9.3 km/h 63% 0.0 mm CLR
02:30 13.7 °C 6.6 °C 1016.1 hPa SW 6.9 km/h 7.4 km/h 62% 0.0 mm CLR
02:35 13.7 °C 6.6 °C 1015.9 hPa SW 6.9 km/h 7.4 km/h 62% 0.0 mm CLR
02:40 13.7 °C 6.6 °C 1015.9 hPa SSW 4.7 km/h 9.3 km/h 62% 0.0 mm CLR
02:45 13.6 °C 6.7 °C 1015.9 hPa SSW 4.7 km/h 7.4 km/h 63% 0.0 mm CLR
02:50 13.6 °C 6.9 °C 1015.7 hPa SW 5.8 km/h 9.3 km/h 64% 0.0 mm CLR
02:55 13.6 °C 7.4 °C 1015.7 hPa WSW 5.8 km/h 9.3 km/h 66% 0.0 mm CLR
03:00 13.5 °C 7.9 °C 1015.7 hPa SW 4.8 km/h 9.7 km/h 69% 0.0 mm CLR
03:05 13.4 °C 8.1 °C 1015.7 hPa SW 5.8 km/h 9.3 km/h 70% 0.0 mm CLR
03:10 13.3 °C 8.2 °C 1015.7 hPa SSW 6.4 km/h 9.3 km/h 71% 0.0 mm CLR
03:15 13.2 °C 8.4 °C 1015.7 hPa SW 6.4 km/h 9.3 km/h 73% 0.0 mm CLR
03:20 13.1 °C 8.4 °C 1015.6 hPa SSW 6.9 km/h 9.3 km/h 73% 0.0 mm CLR
03:25 13.1 °C 8.4 °C 1015.6 hPa SW 6.9 km/h 7.6 km/h 73% 0.0 mm CLR
03:30 13.1 °C 8.6 °C 1015.6 hPa SSW 6.9 km/h 9.5 km/h 74% 0.0 mm CLR
03:35 13.0 °C 8.4 °C 1015.6 hPa SW 6.9 km/h 11.1 km/h 74% 0.0 mm CLR
03:40 12.9 °C 8.2 °C 1015.6 hPa SSW 6.9 km/h 11.1 km/h 73% 0.0 mm CLR
03:45 12.8 °C 8.1 °C 1015.6 hPa South 6.9 km/h 9.3 km/h 73% 0.0 mm CLR
03:50 12.7 °C 8.0 °C 1015.5 hPa SSW 6.9 km/h 11.1 km/h 73% 0.0 mm CLR
03:55 12.6 °C 8.1 °C 1015.5 hPa SSW 6.9 km/h 11.1 km/h 74% 0.0 mm CLR
04:00 12.6 °C 8.1 °C 1015.5 hPa SSW 8.0 km/h 11.3 km/h 74% 0.0 mm CLR
04:05 12.6 °C 7.9 °C 1015.4 hPa SSW 8.4 km/h 9.3 km/h 73% 0.0 mm CLR
04:10 12.5 °C 7.4 °C 1015.4 hPa SW 6.9 km/h 11.1 km/h 71% 0.0 mm CLR
04:15 12.6 °C 7.3 °C 1015.4 hPa SW 6.9 km/h 11.1 km/h 70% 0.0 mm CLR
04:20 12.5 °C 6.8 °C 1015.3 hPa SW 8.4 km/h 13.0 km/h 68% 0.0 mm CLR
04:25 12.4 °C 6.4 °C 1015.3 hPa SW 8.4 km/h 11.1 km/h 67% 0.0 mm CLR
04:30 12.4 °C 6.2 °C 1015.3 hPa WSW 6.4 km/h 7.6 km/h 66% 0.0 mm CLR
04:35 12.4 °C 6.0 °C 1015.2 hPa WSW 6.4 km/h 9.3 km/h 65% 0.0 mm CLR
04:40 12.3 °C 5.9 °C 1015.2 hPa SW 6.4 km/h 11.1 km/h 65% 0.0 mm CLR
04:45 12.2 °C 5.6 °C 1015.2 hPa WSW 6.4 km/h 7.4 km/h 64% 0.0 mm CLR
04:50 12.2 °C 5.6 °C 1015.1 hPa SW 5.8 km/h 9.3 km/h 64% 0.0 mm CLR
04:55 12.2 °C 5.6 °C 1015.1 hPa South 5.8 km/h 7.4 km/h 64% 0.0 mm CLR
05:00 12.2 °C 5.6 °C 1015.1 hPa SSW 4.8 km/h 9.7 km/h 64% 0.0 mm CLR
05:05 12.2 °C 5.8 °C 1015.1 hPa South 5.8 km/h 7.4 km/h 65% 0.0 mm CLR
05:10 12.0 °C 5.8 °C 1015.1 hPa SSW 5.8 km/h 10.3 km/h 66% 0.0 mm CLR
05:15 11.9 °C 5.9 °C 1015.1 hPa South 5.8 km/h 7.4 km/h 67% 0.0 mm CLR
05:20 11.9 °C 6.2 °C 1015.0 hPa SSW 5.8 km/h 5.6 km/h 68% 0.0 mm CLR
05:25 11.9 °C 6.4 °C 1015.0 hPa SW 5.8 km/h 7.4 km/h 69% 0.0 mm CLR
05:30 11.9 °C 6.4 °C 1015.0 hPa WSW 4.7 km/h 9.3 km/h 69% 0.0 mm CLR
05:35 11.9 °C 6.2 °C 1015.0 hPa WSW 4.7 km/h 7.4 km/h 68% 0.0 mm CLR
05:40 11.9 °C 6.2 °C 1015.0 hPa West 4.7 km/h 7.4 km/h 68% 0.0 mm CLR
05:45 11.7 °C 6.0 °C 1015.0 hPa West 4.7 km/h 7.4 km/h 68% 0.0 mm CLR
05:50 11.6 °C 5.9 °C 1015.0 hPa West 5.8 km/h 7.4 km/h 68% 0.0 mm CLR
05:55 11.4 °C 5.7 °C 1015.0 hPa WSW 5.8 km/h 7.4 km/h 68% 0.0 mm CLR
06:00 11.3 °C 5.6 °C 1015.0 hPa WSW 4.8 km/h 8.0 km/h 68% 0.0 mm CLR
06:05 11.3 °C 5.6 °C 1015.2 hPa West 5.0 km/h 7.4 km/h 68% 0.0 mm CLR
06:10 11.2 °C 5.5 °C 1015.2 hPa WSW 4.7 km/h 7.4 km/h 68% 0.0 mm CLR
06:15 11.2 °C 5.5 °C 1015.2 hPa WSW 4.7 km/h 7.4 km/h 68% 0.0 mm CLR
06:20 11.2 °C 5.5 °C 1015.2 hPa WSW 4.7 km/h 5.0 km/h 68% 0.0 mm CLR
06:25 11.2 °C 5.5 °C 1015.2 hPa WSW 4.7 km/h   68% 0.0 mm CLR
06:30 11.2 °C 5.5 °C 1015.2 hPa WSW 2.3 km/h 7.4 km/h 68% 0.0 mm CLR
06:35 11.2 °C 5.3 °C 1015.4 hPa West 2.3 km/h 7.4 km/h 67% 0.0 mm CLR
06:40 11.2 °C 5.1 °C 1015.4 hPa West 4.7 km/h 9.3 km/h 66% 0.0 mm CLR
06:45 11.1 °C 5.2 °C 1015.4 hPa SW 4.7 km/h 9.5 km/h 67% 0.0 mm CLR
06:50 11.1 °C 5.4 °C 1015.5 hPa West 5.8 km/h 7.4 km/h 68% 0.0 mm CLR
06:55 11.2 °C 5.5 °C 1015.5 hPa WNW 5.8 km/h 9.3 km/h 68% 0.0 mm CLR
07:00 11.2 °C 5.5 °C 1015.5 hPa WSW 4.8 km/h 9.7 km/h 68% 0.0 mm CLR
07:05 11.3 °C 5.6 °C 1015.6 hPa West 5.8 km/h 7.4 km/h 68% 0.0 mm CLR
07:10 11.3 °C 5.6 °C 1015.6 hPa SW 5.0 km/h 7.4 km/h 68% 0.0 mm CLR
07:15 11.3 °C 5.6 °C 1015.6 hPa West 5.0 km/h 5.6 km/h 68% 0.0 mm CLR
07:20 11.3 °C 5.6 °C 1015.7 hPa WSW 3.9 km/h 5.8 km/h 68% 0.0 mm CLR
07:25 11.2 °C 5.3 °C 1015.7 hPa WSW 3.9 km/h 7.4 km/h 67% 0.0 mm CLR
07:30 11.2 °C 5.3 °C 1015.7 hPa SW 4.7 km/h 7.4 km/h 67% 0.0 mm CLR
07:35 11.2 °C 5.3 °C 1015.9 hPa SW 4.7 km/h 7.4 km/h 67% 0.0 mm CLR
07:40 11.3 °C 5.2 °C 1015.9 hPa WSW 5.0 km/h 5.6 km/h 66% 0.0 mm CLR
07:45 11.3 °C 5.2 °C 1015.9 hPa WSW 5.0 km/h 7.4 km/h 66% 0.0 mm CLR
07:50 11.3 °C 4.9 °C 1016.1 hPa WSW 3.9 km/h 7.4 km/h 65% 0.0 mm CLR
07:55 11.3 °C 4.9 °C 1016.1 hPa West 3.9 km/h 7.4 km/h 65% 0.0 mm CLR
08:00 11.2 °C 4.8 °C 1016.1 hPa West 4.8 km/h 9.7 km/h 65% 0.0 mm CLR
08:05 11.2 °C 4.8 °C 1016.2 hPa West 5.0 km/h 9.3 km/h 65% 0.0 mm CLR
08:10 11.1 °C 4.6 °C 1016.2 hPa West 6.4 km/h 9.3 km/h 64% 0.0 mm CLR
08:15 11.2 °C 4.6 °C 1016.2 hPa West 6.4 km/h 7.4 km/h 64% 0.0 mm CLR
08:20 11.3 °C 4.5 °C 1016.5 hPa West 5.0 km/h 5.6 km/h 63% 0.0 mm CLR
08:25 11.5 °C 4.4 °C 1016.5 hPa West 5.0 km/h 7.4 km/h 62% 0.0 mm CLR
08:30 11.7 °C 4.7 °C 1016.5 hPa WSW 4.7 km/h 7.4 km/h 62% 0.0 mm CLR
08:35 11.8 °C 4.5 °C 1016.6 hPa WSW 4.7 km/h 7.4 km/h 61% 0.0 mm CLR
08:40 12.0 °C 4.7 °C 1016.6 hPa WSW 4.7 km/h 3.7 km/h 61% 0.0 mm CLR
08:45 12.3 °C 5.2 °C 1016.6 hPa SW 4.7 km/h 6.4 km/h 62% 0.0 mm CLR
08:50 12.4 °C 5.3 °C 1016.7 hPa SW 3.9 km/h 7.4 km/h 62% 0.0 mm CLR
08:55 12.6 °C 5.1 °C 1016.7 hPa SW 3.9 km/h 7.4 km/h 60% 0.0 mm CLR
09:00 12.8 °C 5.0 °C 1016.7 hPa SW 3.2 km/h 8.0 km/h 59% 0.0 mm CLR
09:05 13.1 °C 4.5 °C 1016.8 hPa WSW 4.7 km/h 7.4 km/h 56% 0.0 mm CLR
09:10 13.4 °C 4.6 °C 1016.8 hPa SSW 4.7 km/h 7.4 km/h 55% 0.0 mm CLR
09:15 13.7 °C 4.3 °C 1016.8 hPa WSW 4.7 km/h 7.4 km/h 53% 0.0 mm CLR
09:20 14.0 °C 3.7 °C 1016.9 hPa WSW 4.7 km/h 11.1 km/h 50% 0.0 mm CLR
09:25 14.2 °C 3.3 °C 1016.9 hPa SW 4.7 km/h 9.5 km/h 48% 0.0 mm CLR
09:30 14.6 °C 3.4 °C 1016.9 hPa SW 6.9 km/h 11.1 km/h 47% 0.0 mm CLR
09:35 14.8 °C 3.3 °C 1017.0 hPa WSW 6.9 km/h 9.3 km/h 46% 0.0 mm CLR
09:40 15.0 °C 3.4 °C 1017.0 hPa SW 6.9 km/h 8.7 km/h 46% 0.0 mm CLR
09:45 15.2 °C 3.3 °C 1017.0 hPa SSW 6.9 km/h 13.0 km/h 45% 0.0 mm CLR
09:50 15.4 °C 2.9 °C 1016.9 hPa SSW 7.6 km/h 11.1 km/h 43% 0.0 mm CLR
09:55 15.6 °C 3.1 °C 1016.9 hPa SSW 7.6 km/h 9.5 km/h 43% 0.0 mm CLR
10:00 15.8 °C 2.9 °C 1016.9 hPa SSW 8.0 km/h 11.3 km/h 42% 0.0 mm CLR
10:05 16.1 °C 3.2 °C 1017.0 hPa SW 6.9 km/h 11.1 km/h 42% 0.0 mm CLR
10:10 16.3 °C 3.0 °C 1017.0 hPa West 6.9 km/h 11.1 km/h 41% 0.0 mm CLR
10:15 16.4 °C 3.1 °C 1017.0 hPa SW 6.9 km/h 11.1 km/h 41% 0.0 mm CLR
10:20 16.6 °C 3.3 °C 1017.1 hPa SW 7.6 km/h 11.1 km/h 41% 0.0 mm CLR
10:25 16.7 °C 3.4 °C 1017.1 hPa South 7.6 km/h 11.1 km/h 41% 0.0 mm CLR
10:30 16.8 °C 3.4 °C 1017.1 hPa SSW 9.5 km/h 13.0 km/h 41% 0.0 mm CLR
10:35 16.9 °C 3.6 °C 1017.1 hPa SSW 9.5 km/h 13.0 km/h 41% 0.0 mm CLR
10:40 17.1 °C 3.4 °C 1017.1 hPa SW 8.7 km/h 11.1 km/h 40% 0.0 mm CLR
10:45 17.2 °C 3.4 °C 1017.1 hPa SSW 8.7 km/h 13.0 km/h 40% 0.0 mm CLR
10:50 17.3 °C 3.6 °C 1017.1 hPa SW 8.4 km/h 11.1 km/h 40% 0.0 mm CLR
10:55 17.7 °C 3.6 °C 1017.1 hPa South 8.4 km/h 14.8 km/h 39% 0.0 mm CLR
11:00 17.9 °C 3.7 °C 1017.1 hPa SSW 9.7 km/h 19.3 km/h 39% 0.0 mm CLR
11:05 18.3 °C 3.3 °C 1017.0 hPa SW 9.5 km/h 18.5 km/h 37% 0.0 mm CLR
11:10 18.6 °C 3.6 °C 1017.0 hPa WSW 10.3 km/h 16.7 km/h 37% 0.0 mm CLR
11:15 18.8 °C 3.8 °C 1017.0 hPa SW 10.3 km/h 9.3 km/h 37% 0.0 mm CLR
11:20 19.2 °C 3.8 °C 1017.0 hPa SSE 8.4 km/h 18.5 km/h 36% 0.0 mm CLR
11:25 19.6 °C 3.7 °C 1017.0 hPa SSW 8.4 km/h 13.0 km/h 35% 0.0 mm CLR
11:30 19.7 °C 3.8 °C 1017.0 hPa SW 9.5 km/h 11.1 km/h 35% 0.0 mm CLR
11:35 19.9 °C 4.0 °C 1016.8 hPa WSW 9.5 km/h 14.8 km/h 35% 0.0 mm CLR
11:40 20.1 °C 3.7 °C 1016.8 hPa West 8.7 km/h 13.0 km/h 34% 0.0 mm CLR
11:45 20.2 °C 3.8 °C 1016.8 hPa SW 8.7 km/h 14.8 km/h 34% 0.0 mm CLR
11:50 20.4 °C 3.6 °C 1016.9 hPa NW 10.0 km/h 13.0 km/h 33% 0.0 mm CLR
11:55 20.5 °C 3.7 °C 1016.9 hPa WSW 10.0 km/h 11.1 km/h 33% 0.0 mm CLR
12:00 20.6 °C 3.8 °C 1016.9 hPa West 9.7 km/h 19.3 km/h 33% 0.0 mm CLR
12:05 20.9 °C 2.7 °C 1016.7 hPa WSW 8.7 km/h 20.4 km/h 30% 0.0 mm CLR
12:10 21.0 °C 2.7 °C 1016.7 hPa WNW 13.0 km/h 27.8 km/h 30% 0.0 mm CLR
12:15 21.3 °C 2.1 °C 1016.7 hPa West 13.0 km/h 27.8 km/h 28% 0.0 mm CLR
12:20 21.4 °C 2.6 °C 1016.7 hPa WNW 16.4 km/h 29.6 km/h 29% 0.0 mm CLR
12:25 21.4 °C 3.1 °C 1016.7 hPa WSW 16.4 km/h 24.1 km/h 30% 0.0 mm CLR
12:30 21.6 °C 2.8 °C 1016.7 hPa WNW 16.4 km/h 29.6 km/h 29% 0.0 mm CLR
12:35 21.7 °C 1.9 °C 1016.6 hPa NW 16.4 km/h 37.0 km/h 27% 0.0 mm CLR
12:40 21.7 °C 1.3 °C 1016.6 hPa WNW 18.3 km/h 25.9 km/h 26% 0.0 mm CLR
12:45 21.9 °C 1.5 °C 1016.6 hPa WNW 18.3 km/h 24.1 km/h 26% 0.0 mm CLR
12:50 22.0 °C 1.6 °C 1016.6 hPa NW 20.1 km/h 22.2 km/h 26% 0.0 mm CLR
12:55 22.1 °C 1.7 °C 1016.6 hPa NW 20.1 km/h 25.9 km/h 26% 0.0 mm CLR
13:00 22.2 °C 0.7 °C 1016.6 hPa WNW 19.3 km/h 35.4 km/h 24% 0.0 mm CLR
13:05 21.9 °C 0.9 °C 1016.5 hPa NNW 18.0 km/h 27.8 km/h 25% 0.0 mm CLR
13:10 22.2 °C 0.7 °C 1016.5 hPa NW 18.3 km/h 27.8 km/h 24% 0.0 mm CLR
13:15 22.4 °C 0.8 °C 1016.5 hPa NE 18.3 km/h 20.4 km/h 24% 0.0 mm CLR
13:20 22.6 °C 1.0 °C 1016.3 hPa NNW 14.8 km/h 25.9 km/h 24% 0.0 mm CLR
13:25 22.7 °C -0.8 °C 1016.3 hPa NNW 14.8 km/h 16.7 km/h 21% 0.0 mm CLR
13:30 22.5 °C -0.3 °C 1016.3 hPa NW 13.7 km/h 22.2 km/h 22% 0.0 mm CLR
13:35 22.6 °C -0.2 °C 1016.1 hPa WNW 13.7 km/h 16.7 km/h 22% 0.0 mm CLR
13:40 22.7 °C 0.5 °C 1016.1 hPa NW 14.0 km/h 24.1 km/h 23% 0.0 mm CLR
13:45 22.7 °C 0.5 °C 1016.1 hPa WNW 14.0 km/h 24.1 km/h 23% 0.0 mm CLR
13:50 22.7 °C 0.5 °C 1015.9 hPa WNW 14.8 km/h 20.4 km/h 23% 0.0 mm CLR
13:55 22.8 °C 0.6 °C 1015.9 hPa WNW 14.8 km/h 25.9 km/h 23% 0.0 mm CLR
14:00 23.1 °C 0.8 °C 1015.9 hPa NW 11.3 km/h 19.3 km/h 23% 0.0 mm CLR
14:05 23.3 °C 0.4 °C 1015.8 hPa WNW 11.1 km/h 14.8 km/h 22% 0.0 mm CLR
14:10 23.3 °C 0.4 °C 1015.8 hPa WNW 10.0 km/h 20.4 km/h 22% 0.0 mm CLR
14:15 23.2 °C 0.9 °C 1015.8 hPa West 10.0 km/h 25.6 km/h 23% 0.0 mm CLR
14:20 23.2 °C 0.3 °C 1015.6 hPa WNW 13.7 km/h 27.8 km/h 22% 0.0 mm CLR
14:25 23.2 °C 0.3 °C 1015.6 hPa WNW 13.7 km/h 25.9 km/h 22% 0.0 mm CLR
14:30 23.1 °C -0.4 °C 1015.6 hPa NW 15.6 km/h 13.0 km/h 21% 0.0 mm CLR
14:35 23.3 °C -0.3 °C 1015.3 hPa WSW 15.6 km/h 13.0 km/h 21% 0.0 mm CLR
14:40 23.5 °C -0.8 °C 1015.3 hPa NW 6.9 km/h 16.7 km/h 20% 0.0 mm CLR
14:45 23.6 °C -0.7 °C 1015.3 hPa NNW 6.9 km/h 11.1 km/h 20% 0.0 mm CLR
14:50 23.7 °C -0.6 °C 1015.1 hPa ENE 10.3 km/h 5.6 km/h 20% 0.0 mm CLR
14:55 23.9 °C -0.4 °C 1015.1 hPa West 10.3 km/h 18.5 km/h 20% 0.0 mm CLR
15:00 24.1 °C 0.3 °C 1015.1 hPa WSW 9.7 km/h 25.7 km/h 21% 0.0 mm CLR
15:05 24.2 °C -0.9 °C 1015.0 hPa WSW 8.7 km/h 20.4 km/h 19% 0.0 mm CLR
15:10 24.1 °C -0.3 °C 1015.0 hPa WSW 11.9 km/h 18.5 km/h 20% 0.0 mm CLR
15:15 24.2 °C -0.9 °C 1015.0 hPa NNW 11.9 km/h 22.2 km/h 19% 0.0 mm CLR
15:20 24.2 °C -0.9 °C 1014.9 hPa NW 10.0 km/h 14.8 km/h 19% 0.0 mm CLR
15:25 24.4 °C -0.7 °C 1014.9 hPa NW 10.0 km/h 5.6 km/h 19% 0.0 mm CLR
15:30 24.6 °C -1.3 °C 1014.9 hPa WSW 6.4 km/h 13.0 km/h 18% 0.0 mm CLR
15:35 24.4 °C -0.7 °C 1014.7 hPa NW 6.4 km/h 31.5 km/h 19% 0.0 mm CLR
15:40 24.6 °C -1.3 °C 1014.7 hPa WSW 13.0 km/h 27.8 km/h 18% 0.0 mm CLR
15:45 24.7 °C -2.0 °C 1014.7 hPa WSW 13.0 km/h 20.4 km/h 17% 0.0 mm CLR
15:50 24.7 °C -2.8 °C 1014.5 hPa NW 13.7 km/h 29.6 km/h 16% 0.0 mm CLR
15:55 24.7 °C -2.0 °C 1014.5 hPa NW 13.7 km/h 25.9 km/h 17% 0.0 mm CLR
16:00 24.7 °C -1.2 °C 1014.5 hPa NW 16.1 km/h 25.7 km/h 18% 0.0 mm CLR
16:05 24.8 °C -1.2 °C 1014.4 hPa WNW 16.4 km/h 7.4 km/h 18% 0.0 mm CLR
16:10 24.9 °C -1.1 °C 1014.4 hPa WNW 10.0 km/h 18.5 km/h 18% 0.0 mm CLR
16:15 24.8 °C -1.9 °C 1014.4 hPa NNE 10.0 km/h 18.5 km/h 17% 0.0 mm CLR
16:20 25.1 °C -1.7 °C 1014.1 hPa West 8.7 km/h 16.7 km/h 17% 0.0 mm CLR
16:25 25.3 °C -1.5 °C 1014.1 hPa WNW 8.7 km/h 5.6 km/h 17% 0.0 mm CLR
16:30 25.6 °C -1.3 °C 1014.1 hPa WNW 6.9 km/h 16.7 km/h 17% 0.0 mm CLR
16:35 25.4 °C -1.4 °C 1014.1 hPa West 6.9 km/h 13.7 km/h 17% 0.0 mm CLR
16:40 25.6 °C -2.1 °C 1014.1 hPa NW 10.3 km/h 13.0 km/h 16% 0.0 mm CLR
16:45 25.8 °C -1.9 °C 1014.1 hPa NNE 10.3 km/h 11.1 km/h 16% 0.0 mm CLR
16:50 25.9 °C -1.9 °C 1013.9 hPa NNW 6.9 km/h 11.1 km/h 16% 0.0 mm CLR
16:55 25.8 °C -2.8 °C 1013.9 hPa SW 6.9 km/h 14.8 km/h 15% 0.0 mm CLR
17:00 26.0 °C -2.7 °C 1013.9 hPa West 8.0 km/h 24.1 km/h 15% 0.0 mm CLR
17:05 25.9 °C -2.7 °C 1013.9 hPa West 7.6 km/h 20.4 km/h 15% 0.0 mm CLR
17:10 25.8 °C -2.8 °C 1013.9 hPa West 11.1 km/h 11.1 km/h 15% 0.0 mm CLR
17:15 25.8 °C -2.8 °C 1013.9 hPa WNW 11.1 km/h 7.4 km/h 15% 0.0 mm CLR
17:20 25.7 °C -2.9 °C 1013.8 hPa WNW 6.9 km/h 14.8 km/h 15% 0.0 mm CLR
17:25 25.8 °C -2.8 °C 1013.8 hPa North 6.9 km/h 16.7 km/h 15% 0.0 mm CLR
17:30 25.9 °C -2.7 °C 1013.8 hPa NNW 8.4 km/h 9.5 km/h 15% 0.0 mm CLR
17:35 26.2 °C -2.5 °C 1013.9 hPa NW 8.4 km/h 7.4 km/h 15% 0.0 mm CLR
17:40 26.2 °C -2.5 °C 1013.9 hPa NW 5.8 km/h 13.0 km/h 15% 0.0 mm CLR
17:45 26.2 °C -2.5 °C 1013.9 hPa NE 5.8 km/h 16.7 km/h 15% 0.0 mm CLR
17:50 25.9 °C 1.9 °C 1013.6 hPa NNE 9.5 km/h 19.0 km/h 21% 0.0 mm CLR
17:55 25.4 °C 1.5 °C 1013.6 hPa NE 9.5 km/h 16.4 km/h 21% 0.0 mm CLR
18:00 25.3 °C 2.1 °C 1013.6 hPa NE 12.9 km/h 19.3 km/h 22% 0.0 mm CLR
18:05 25.1 °C 2.5 °C 1013.5 hPa NNE 12.2 km/h 20.4 km/h 23% 0.0 mm CLR
18:10 25.1 °C 1.9 °C 1013.5 hPa NE 14.0 km/h 20.4 km/h 22% 0.0 mm CLR
18:15 24.9 °C 2.9 °C 1013.5 hPa ESE 14.0 km/h 27.8 km/h 24% 0.0 mm CLR
18:20 24.4 °C 2.5 °C 1013.7 hPa SE 16.1 km/h 24.1 km/h 24% 0.0 mm CLR
18:25 24.3 °C 2.4 °C 1013.7 hPa SE 16.1 km/h 27.8 km/h 24% 0.0 mm CLR
18:30 24.2 °C 2.3 °C 1013.7 hPa SE 18.0 km/h 20.4 km/h 24% 0.0 mm CLR
18:35 24.1 °C 2.8 °C 1013.8 hPa ESE 18.0 km/h 26.2 km/h 25% 0.0 mm CLR
18:40 23.9 °C 2.7 °C 1013.8 hPa ESE 17.2 km/h 24.1 km/h 25% 0.0 mm CLR
18:45 23.9 °C 2.7 °C 1013.8 hPa ESE 17.2 km/h 24.1 km/h 25% 0.0 mm CLR
18:50 24.2 °C 2.9 °C 1013.7 hPa ESE 16.1 km/h 20.4 km/h 25% 0.0 mm CLR
18:55 24.2 °C 2.3 °C 1013.7 hPa SE 16.1 km/h 27.8 km/h 24% 0.0 mm CLR
19:00 24.1 °C 2.8 °C 1013.7 hPa SE 14.5 km/h 33.8 km/h 25% 0.0 mm CLR
19:05 23.9 °C 2.1 °C 1013.8 hPa SSE 14.0 km/h 27.8 km/h 24% 0.0 mm CLR
19:10 23.8 °C 2.6 °C 1013.8 hPa SE 19.0 km/h 24.1 km/h 25% 0.0 mm CLR
19:15 23.7 °C 2.5 °C 1013.8 hPa SSE 19.0 km/h 29.6 km/h 25% 0.0 mm CLR
19:20 23.6 °C 2.4 °C 1013.9 hPa SE 16.1 km/h 22.0 km/h 25% 0.0 mm CLR
19:25 23.4 °C 2.2 °C 1013.9 hPa SE 16.1 km/h 27.8 km/h 25% 0.0 mm CLR
19:30 23.4 °C 2.2 °C 1013.9 hPa SE 15.6 km/h 20.4 km/h 25% 0.0 mm CLR
19:35 23.3 °C 2.2 °C 1014.1 hPa SE 15.6 km/h 25.9 km/h 25% 0.0 mm CLR
19:40 23.1 °C 2.6 °C 1014.1 hPa SSE 14.0 km/h 14.8 km/h 26% 0.0 mm CLR
19:45 23.1 °C 2.6 °C 1014.1 hPa ESE 14.0 km/h 18.5 km/h 26% 0.0 mm CLR
19:50 23.0 °C 2.4 °C 1014.2 hPa East 10.0 km/h 13.0 km/h 26% 0.0 mm CLR
19:55 22.8 °C 2.3 °C 1014.2 hPa ESE 10.0 km/h 19.0 km/h 26% 0.0 mm CLR
20:00 22.7 °C 1.7 °C 1014.2 hPa SE 11.3 km/h 29.0 km/h 25% 0.0 mm CLR
20:05 22.4 °C 1.4 °C 1014.4 hPa SSE 10.3 km/h 14.8 km/h 25% 0.0 mm CLR
20:10 22.3 °C 1.3 °C 1014.4 hPa SE 13.0 km/h 11.1 km/h 25% 0.0 mm CLR
20:15 22.3 °C 1.8 °C 1014.4 hPa East 13.0 km/h 25.9 km/h 26% 0.0 mm CLR
20:20 22.2 °C 1.2 °C 1014.6 hPa SE 8.4 km/h 14.8 km/h 25% 0.0 mm CLR
20:25 22.1 °C 1.7 °C 1014.6 hPa SSE 8.4 km/h 11.1 km/h 26% 0.0 mm CLR
20:30 21.9 °C 1.5 °C 1014.6 hPa ESE 8.4 km/h 9.3 km/h 26% 0.0 mm CLR
20:35 21.8 °C 1.4 °C 1014.7 hPa ESE 8.4 km/h 9.3 km/h 26% 0.0 mm CLR
20:40 21.6 °C 1.8 °C 1014.7 hPa SE 6.9 km/h 11.1 km/h 27% 0.0 mm CLR
20:45 21.4 °C 1.6 °C 1014.7 hPa SE 6.9 km/h 11.1 km/h 27% 0.0 mm CLR
20:50 21.3 °C 1.6 °C 1014.9 hPa SSW 6.9 km/h 14.0 km/h 27% 0.0 mm CLR
20:55 21.2 °C 1.4 °C 1014.9 hPa SSE 6.9 km/h 16.7 km/h 27% 0.0 mm CLR
21:00 21.2 °C 1.9 °C 1014.9 hPa SSE 8.0 km/h 16.1 km/h 28% 0.0 mm CLR
21:05 21.1 °C 2.8 °C 1015.2 hPa NNE 7.6 km/h 10.3 km/h 30% 0.0 mm CLR
21:10 20.5 °C 6.4 °C 1015.2 hPa NNW 5.0 km/h 13.0 km/h 40% 0.0 mm CLR
21:15 19.6 °C 7.7 °C 1015.2 hPa NE 5.0 km/h 11.1 km/h 46% 0.0 mm CLR
21:20 19.0 °C 8.1 °C 1015.5 hPa NNW 8.4 km/h 7.4 km/h 49% 0.0 mm CLR
21:25 18.6 °C 8.3 °C 1015.5 hPa NNW 8.4 km/h 11.1 km/h 51% 0.0 mm CLR
21:30 18.2 °C 8.4 °C 1015.5 hPa NNE 5.8 km/h 16.7 km/h 53% 0.0 mm CLR
21:35 17.8 °C 8.6 °C 1015.7 hPa NE 5.8 km/h 11.1 km/h 55% 0.0 mm CLR
21:40 17.7 °C 8.8 °C 1015.7 hPa NNE 8.4 km/h 7.4 km/h 56% 0.0 mm CLR
21:45 17.6 °C 9.0 °C 1015.7 hPa NNE 8.4 km/h 11.1 km/h 57% 0.0 mm CLR
21:50 17.4 °C 9.1 °C 1016.0 hPa NNE 4.7 km/h 7.4 km/h 58% 0.0 mm CLR
21:55 17.2 °C 9.4 °C 1016.0 hPa North 4.7 km/h 9.5 km/h 60% 0.0 mm CLR
22:00 17.1 °C 9.8 °C 1016.0 hPa NNE 8.0 km/h 14.5 km/h 62% 0.0 mm CLR
22:05 16.9 °C 10.3 °C 1016.3 hPa NNW 7.6 km/h 22.2 km/h 65% 0.0 mm CLR
22:10 16.7 °C 10.3 °C 1016.3 hPa NE 10.0 km/h 13.0 km/h 66% 0.0 mm CLR
22:15 16.6 °C 10.4 °C 1016.3 hPa ENE 10.0 km/h 16.7 km/h 67% 0.0 mm CLR
22:20 16.5 °C 10.3 °C 1016.5 hPa NNW 6.4 km/h 11.1 km/h 67% 0.0 mm CLR
22:25 16.3 °C 10.4 °C 1016.5 hPa NE 6.4 km/h 16.7 km/h 68% 0.0 mm CLR
22:30 16.2 °C 10.3 °C 1016.5 hPa NW 6.9 km/h 9.3 km/h 68% 0.0 mm CLR
22:35 16.2 °C 10.3 °C 1016.7 hPa NNE 6.9 km/h 11.1 km/h 68% 0.0 mm CLR
22:40 16.1 °C 10.2 °C 1016.7 hPa NNE 5.8 km/h 14.8 km/h 68% 0.0 mm CLR
22:45 16.0 °C 10.1 °C 1016.7 hPa NE 5.8 km/h 9.3 km/h 68% 0.0 mm CLR
22:50 15.9 °C 10.0 °C 1016.9 hPa ENE 6.9 km/h 9.3 km/h 68% 0.0 mm CLR
22:55 15.8 °C 10.1 °C 1016.9 hPa NNE 6.9 km/h 11.1 km/h 69% 0.0 mm CLR
23:00 15.8 °C 10.1 °C 1016.9 hPa NNE 8.0 km/h 9.7 km/h 69% 0.0 mm CLR
23:05 15.7 °C 10.2 °C 1016.9 hPa North 6.4 km/h 7.4 km/h 70% 0.0 mm CLR
23:10 15.7 °C 10.4 °C 1016.9 hPa NW 5.0 km/h 7.4 km/h 71% 0.0 mm CLR
23:15 15.6 °C 10.3 °C 1016.9 hPa NW 5.0 km/h 7.4 km/h 71% 0.0 mm CLR
23:20 15.6 °C 10.3 °C 1016.9 hPa NW 3.9 km/h 7.4 km/h 71% 0.0 mm CLR
23:25 15.5 °C 10.4 °C 1016.9 hPa NNW 3.9 km/h 5.6 km/h 72% 0.0 mm CLR
23:30 15.5 °C 10.4 °C 1016.9 hPa NNW 3.2 km/h 3.7 km/h 72% 0.0 mm CLR
23:35 15.4 °C 10.4 °C 1017.0 hPa NNW 3.2 km/h 5.6 km/h 72% 0.0 mm CLR
23:40 15.4 °C 10.4 °C 1017.0 hPa NNW 2.3 km/h 2.3 km/h 72% 0.0 mm CLR
23:45 15.4 °C 10.4 °C 1017.0 hPa NNW 2.3 km/h 3.7 km/h 72% 0.0 mm CLR
23:50 15.3 °C 10.5 °C 1017.0 hPa NNW 2.3 km/h 3.7 km/h 73% 0.0 mm CLR
23:55 15.3 °C 10.5 °C 1017.0 hPa NNW 2.3 km/h 5.6 km/h 73% 0.0 mm CLR
Murcia-Puente Tocinos, España
Compliments of Weather Underground - 2.75 mb

La estación de MeteoMurcia.com, publica sus datos en los siguientes proyectos:

Weather Underground PWS IMURCIAP2 Meteoclimatic www.awekas.at

W3Counter
Web Analytics